KPWT

Bremerton National Airport

Bremerton, Washington, USA
KPWT 251123Z 2512/2612 04006KT P6SM SKC FM251800 04009KT P6SM SCT250 FM260600 04005KT P6SM SKC
Issued Valid From Valid To
Sep-25 @ 11:23 UTC
(6 hours ago)
Sep-25 @ 12:00 UTC
(5 hours ago)
Sep-26 @ 12:00 UTC
(in 19 hours)
Sep-25 @ 12:00 to Sep-25 @ 18:00
KPWT 251123Z 2512/2612 04006KT P6SM SKC
Wind Visibility Clouds
40° at 6 knots Greater than 6 miles
  • Clear skies
From Sep-25 @ 18:00 to Sep-26 @ 06:00
FM251800 04009KT P6SM SCT250
Wind Visibility Clouds
40° at 9 knots Greater than 6 miles
  • Scattered at 25,000' AGL
From Sep-26 @ 06:00 to Sep-26 @ 12:00
FM260600 04005KT P6SM SKC
Wind Visibility Clouds
40° at 5 knots Greater than 6 miles
  • Clear skies
KPWT 251123Z 2512/2612 04006KT P6SM SKC FM251800 04009KT P6SM SCT250 FM260600 04005KT P6SM SKC
Issued Sep-25 @ 11:23 UTC
(6 hours ago)
Valid From Sep-25 @ 12:00 UTC
(5 hours ago)
Valid To Sep-26 @ 12:00 UTC
(in 19 hours)
Sep-25 @ 12:00 - Sep-25 @ 18:00
Wind Visibility
40° at 6 knots Greater than 6 miles
Clouds
  • Clear skies
From Sep-25 @ 18:00 - Sep-26 @ 06:00
Wind Visibility
40° at 9 knots Greater than 6 miles
Clouds
  • Scattered at 25,000' AGL
From Sep-26 @ 06:00 - Sep-26 @ 12:00
Wind Visibility
40° at 5 knots Greater than 6 miles
Clouds
  • Clear skies